Time;durP1;ratioP1;P1;durP2;ratioP2;P2;SDS_P1;SDS_P2;PMS_P1;PMS_P2;Temp;Humidity;BMP_temperature;BMP_pressure;BME280_temperature;BME280_humidity;BME280_pressure;Samples;Min_cycle;Max_cycle;Signal;HPM_P1;HPM_P2
2023/01/21 00:02:10;;;;;;;33.25;19.38;;;0.10;99.90;;;;;;5051166;28;20041;-64
2023/01/21 00:04:37;;;;;;;36.53;20.13;;;0.00;99.90;;;;;;5051400;28;20116;-64
2023/01/21 00:07:06;;;;;;;31.25;18.48;;;0.00;99.90;;;;;;5050537;28;20064;-64
2023/01/21 00:09:33;;;;;;;34.53;20.20;;;0.00;99.90;;;;;;5034781;28;20047;-64
2023/01/21 00:12:01;;;;;;;31.92;18.10;;;0.00;99.90;;;;;;5051233;28;20174;-64
2023/01/21 00:14:31;;;;;;;31.02;17.77;;;-0.10;99.90;;;;;;5051380;28;20074;-64
2023/01/21 00:16:57;;;;;;;31.65;19.20;;;-0.10;99.90;;;;;;5052681;28;20041;-64
2023/01/21 00:19:24;;;;;;;36.58;20.20;;;-0.20;99.90;;;;;;5033521;28;20056;-64
2023/01/21 00:21:50;;;;;;;31.40;18.85;;;-0.20;99.90;;;;;;5034737;28;20374;-64
2023/01/21 00:24:16;;;;;;;36.80;20.65;;;-0.20;99.90;;;;;;5050524;28;20037;-63
2023/01/21 00:26:41;;;;;;;31.38;17.75;;;-0.20;99.90;;;;;;5050250;28;20135;-63
2023/01/21 00:29:09;;;;;;;32.72;19.67;;;-0.20;99.90;;;;;;5051938;28;20036;-63
2023/01/21 00:31:34;;;;;;;27.38;16.35;;;-0.20;99.90;;;;;;5052200;28;20040;-63
2023/01/21 00:34:00;;;;;;;32.15;19.13;;;-0.20;99.90;;;;;;5033716;28;20045;-63
2023/01/21 00:36:28;;;;;;;34.45;20.00;;;-0.10;99.90;;;;;;5033501;28;20048;-63
2023/01/21 00:38:55;;;;;;;34.95;20.65;;;-0.10;99.90;;;;;;5051069;28;20048;-64
2023/01/21 00:41:20;;;;;;;37.70;22.17;;;-0.10;99.90;;;;;;5049652;28;20032;-63
2023/01/21 00:43:46;;;;;;;41.15;21.08;;;-0.20;99.90;;;;;;5050942;28;20047;-63
2023/01/21 00:46:12;;;;;;;41.78;23.10;;;-0.20;99.90;;;;;;5051639;28;20037;-63
2023/01/21 00:48:37;;;;;;;37.13;21.98;;;-0.10;99.90;;;;;;5049988;28;20037;-64
2023/01/21 00:51:03;;;;;;;43.65;23.73;;;-0.10;99.90;;;;;;5052106;28;20393;-64
2023/01/21 00:53:32;;;;;;;44.58;24.83;;;-0.20;99.90;;;;;;5034006;28;20045;-63
2023/01/21 00:56:03;;;;;;;40.88;23.63;;;-0.10;99.90;;;;;;5049950;28;20045;-64
2023/01/21 00:58:29;;;;;;;40.50;23.15;;;-0.10;99.90;;;;;;5051801;28;20044;-63
2023/01/21 01:01:04;;;;;;;44.13;25.42;;;-0.20;99.90;;;;;;5050982;28;20128;-63
2023/01/21 01:03:31;;;;;;;43.25;23.13;;;-0.20;99.90;;;;;;5050179;28;20371;-63
2023/01/21 01:06:04;;;;;;;41.65;23.58;;;-0.20;99.90;;;;;;5050661;28;20075;-64
2023/01/21 01:08:30;;;;;;;34.78;21.23;;;-0.20;99.90;;;;;;5050758;28;20041;-63
2023/01/21 01:10:56;;;;;;;36.17;22.20;;;-0.20;99.90;;;;;;5033189;28;20041;-64
2023/01/21 01:13:22;;;;;;;37.20;21.50;;;-0.20;99.90;;;;;;5051376;28;20041;-64
2023/01/21 01:15:51;;;;;;;36.13;21.27;;;-0.20;99.90;;;;;;5049894;28;20041;-64
2023/01/21 01:18:16;;;;;;;39.05;20.70;;;-0.30;99.90;;;;;;5049963;28;20071;-63
2023/01/21 01:20:43;;;;;;;37.13;20.48;;;-0.30;99.90;;;;;;5034108;28;20041;-64
2023/01/21 01:23:09;;;;;;;33.90;21.35;;;-0.30;99.90;;;;;;5050673;28;20076;-63
2023/01/21 01:25:36;;;;;;;40.38;22.10;;;-0.30;99.90;;;;;;5050508;28;20068;-64
2023/01/21 01:28:03;;;;;;;42.75;22.63;;;-0.40;99.90;;;;;;5050607;28;20053;-64
2023/01/21 01:30:29;;;;;;;38.58;23.08;;;-0.40;99.90;;;;;;5049199;28;20041;-64
2023/01/21 01:32:55;;;;;;;38.50;22.17;;;-0.40;99.90;;;;;;5050440;28;20064;-63
2023/01/21 01:35:21;;;;;;;35.65;19.88;;;-0.40;99.90;;;;;;5050933;28;20462;-63
2023/01/21 01:37:46;;;;;;;36.90;22.45;;;-0.40;99.90;;;;;;5049612;28;20129;-64
2023/01/21 01:40:12;;;;;;;39.92;23.92;;;-0.40;99.90;;;;;;5051321;28;20048;-64
2023/01/21 01:42:38;;;;;;;36.22;21.90;;;-0.40;99.90;;;;;;5050458;28;20033;-63
2023/01/21 01:45:25;;;;;;;37.42;21.70;;;-0.40;99.90;;;;;;5032850;28;20049;-64
2023/01/21 01:47:59;;;;;;;44.33;24.23;;;-0.40;99.90;;;;;;5051242;28;20045;-64
2023/01/21 01:50:31;;;;;;;40.17;23.33;;;-0.40;99.90;;;;;;5053130;28;20120;-63
2023/01/21 01:52:59;;;;;;;41.47;21.65;;;-0.40;99.90;;;;;;5053075;28;20091;-64
2023/01/21 01:55:27;;;;;;;36.00;21.25;;;-0.40;99.90;;;;;;5054495;28;20084;-64
2023/01/21 01:57:54;;;;;;;33.67;19.98;;;-0.50;99.90;;;;;;5052831;28;20044;-64
2023/01/21 02:00:20;;;;;;;41.58;22.83;;;-0.40;99.90;;;;;;5053084;28;20447;-63
2023/01/21 02:03:43;;;;;;;43.22;23.27;;;-0.40;99.90;;;;;;5053844;28;20048;-64
2023/01/21 02:05:34;;;;;;;42.65;24.38;;;-0.40;99.90;;;;;;5053853;28;20049;-64
2023/01/21 02:08:00;;;;;;;44.08;23.55;;;-0.40;99.90;;;;;;5053775;28;20064;-64
2023/01/21 02:10:26;;;;;;;45.97;24.63;;;-0.40;99.90;;;;;;5037054;28;20041;-63
2023/01/21 02:12:52;;;;;;;41.72;23.77;;;-0.50;99.90;;;;;;5053758;28;20401;-64
2023/01/21 02:15:18;;;;;;;45.85;23.90;;;-0.50;99.90;;;;;;5054242;28;20036;-64
2023/01/21 02:17:46;;;;;;;45.47;25.70;;;-0.50;99.90;;;;;;5036777;28;20451;-64
2023/01/21 02:20:37;;;;;;;44.20;24.23;;;-0.50;99.90;;;;;;5035946;28;20416;-64
2023/01/21 02:23:22;;;;;;;47.25;25.50;;;-0.60;99.90;;;;;;5053209;28;20045;-63
2023/01/21 02:26:12;;;;;;;42.10;24.15;;;-0.50;99.90;;;;;;5054628;28;20048;-64
2023/01/21 02:28:44;;;;;;;44.95;23.42;;;-0.60;99.90;;;;;;5053405;28;20045;-64
2023/01/21 02:31:31;;;;;;;46.38;25.08;;;-0.60;99.90;;;;;;5036022;28;20075;-64
2023/01/21 02:33:59;;;;;;;40.15;23.27;;;-0.50;99.90;;;;;;5052263;28;20041;-64
2023/01/21 02:37:03;;;;;;;46.35;23.55;;;-0.60;99.90;;;;;;5036200;28;20444;-64
2023/01/21 02:39:40;;;;;;;33.25;19.90;;;-0.60;99.90;;;;;;5052167;28;20456;-64
2023/01/21 02:42:16;;;;;;;38.92;20.65;;;-0.60;99.90;;;;;;5052762;28;20041;-64
2023/01/21 02:44:49;;;;;;;38.22;22.17;;;-0.70;99.90;;;;;;5036042;28;20045;-64
2023/01/21 02:47:37;;;;;;;40.33;21.92;;;-0.70;99.90;;;;;;5051726;28;20072;-63
2023/01/21 02:50:21;;;;;;;41.95;23.00;;;-0.70;99.90;;;;;;5053220;28;20386;-63
2023/01/21 02:53:18;;;;;;;37.63;20.65;;;-0.60;99.90;;;;;;5052899;28;20170;-64
2023/01/21 02:55:43;;;;;;;39.55;21.52;;;-0.70;99.90;;;;;;5052939;28;20505;-63
2023/01/21 02:58:13;;;;;;;40.63;21.38;;;-0.70;99.90;;;;;;5053283;28;20052;-64
2023/01/21 03:01:11;;;;;;;36.80;20.20;;;-0.70;99.90;;;;;;5053688;28;20040;-64
2023/01/21 03:04:15;;;;;;;32.38;20.70;;;-0.70;99.90;;;;;;5053737;28;20076;-64
2023/01/21 03:07:08;;;;;;;37.65;20.02;;;-0.70;99.90;;;;;;5032943;28;20140;-64
2023/01/21 03:09:34;;;;;;;33.30;18.90;;;-0.70;99.90;;;;;;5051617;28;20123;-64
2023/01/21 03:12:15;;;;;;;36.65;19.88;;;-0.70;99.90;;;;;;5052459;28;20072;-64
2023/01/21 03:18:02;;;;;;;37.80;21.67;;;-0.70;99.90;;;;;;5053804;28;20428;-64
2023/01/21 03:20:33;;;;;;;35.80;19.63;;;-0.70;99.90;;;;;;5051746;28;20079;-64
2023/01/21 03:23:07;;;;;;;37.63;21.63;;;-0.80;99.90;;;;;;5034612;28;20072;-64
2023/01/21 03:25:34;;;;;;;34.90;21.23;;;-0.70;99.90;;;;;;5052184;28;20049;-64
2023/01/21 03:28:03;;;;;;;39.47;21.63;;;-0.80;99.90;;;;;;5035451;28;20080;-64
2023/01/21 03:30:30;;;;;;;36.95;22.55;;;-0.80;99.90;;;;;;5050870;28;20033;-64
2023/01/21 03:32:57;;;;;;;37.25;21.20;;;-0.70;99.90;;;;;;5052129;28;20072;-64
2023/01/21 03:35:31;;;;;;;41.38;23.20;;;-0.70;99.90;;;;;;5051175;28;20056;-64
2023/01/21 03:38:00;;;;;;;41.05;22.55;;;-0.70;99.90;;;;;;5034623;28;20051;-64
2023/01/21 03:40:30;;;;;;;47.08;24.08;;;-0.70;99.90;;;;;;5051168;28;20135;-64
2023/01/21 03:42:56;;;;;;;39.55;21.13;;;-0.60;99.90;;;;;;5035141;28;20037;-64
2023/01/21 03:45:51;;;;;;;42.17;22.05;;;-0.60;99.90;;;;;;5051483;28;20041;-64
2023/01/21 03:48:28;;;;;;;44.08;23.85;;;-0.70;99.90;;;;;;5049430;28;20059;-64
2023/01/21 03:51:05;;;;;;;48.80;26.67;;;-0.70;99.90;;;;;;5051061;28;20033;-64
2023/01/21 03:53:31;;;;;;;39.67;20.95;;;-0.70;99.90;;;;;;5053129;28;20041;-64
2023/01/21 03:55:58;;;;;;;43.72;23.58;;;-0.70;99.90;;;;;;5051457;28;20040;-64
2023/01/21 03:58:24;;;;;;;44.00;24.25;;;-0.60;99.90;;;;;;5051421;28;20041;-64
2023/01/21 04:00:50;;;;;;;42.28;24.10;;;-0.60;99.90;;;;;;5052704;28;20044;-64
2023/01/21 04:03:16;;;;;;;43.65;23.40;;;-0.60;99.90;;;;;;5051237;28;20049;-64
2023/01/21 04:05:41;;;;;;;45.95;24.17;;;-0.60;99.90;;;;;;5034037;28;20036;-64
2023/01/21 04:08:07;;;;;;;44.05;25.65;;;-0.60;99.90;;;;;;5051063;28;20106;-64
2023/01/21 04:10:33;;;;;;;38.80;21.42;;;-0.60;99.90;;;;;;5034802;28;20037;-64
2023/01/21 04:12:58;;;;;;;44.58;24.95;;;-0.60;99.90;;;;;;5033492;28;20037;-64
2023/01/21 04:15:24;;;;;;;41.80;23.77;;;-0.50;99.90;;;;;;5052213;28;20044;-64
2023/01/21 04:17:49;;;;;;;39.80;22.48;;;-0.50;99.90;;;;;;5051065;28;20072;-64
2023/01/21 04:20:15;;;;;;;46.03;23.85;;;-0.60;99.90;;;;;;5033251;28;20033;-64
2023/01/21 04:22:41;;;;;;;47.97;24.52;;;-0.60;99.90;;;;;;5052679;28;20041;-64
2023/01/21 04:25:08;;;;;;;41.13;23.23;;;-0.60;99.90;;;;;;5050370;28;20512;-64
2023/01/21 04:27:33;;;;;;;45.63;24.25;;;-0.60;99.90;;;;;;5050228;28;20512;-64
2023/01/21 04:29:59;;;;;;;43.90;22.98;;;-0.60;99.90;;;;;;5034655;28;20041;-64
2023/01/21 04:32:25;;;;;;;46.55;24.42;;;-0.60;99.90;;;;;;5050687;28;20128;-64
2023/01/21 04:34:50;;;;;;;44.80;25.27;;;-0.50;99.90;;;;;;5051193;28;20128;-64
2023/01/21 04:37:16;;;;;;;42.70;23.50;;;-0.50;99.90;;;;;;5050519;28;20083;-64
2023/01/21 04:39:42;;;;;;;51.55;25.73;;;-0.60;99.90;;;;;;5050165;28;20037;-64
2023/01/21 04:42:07;;;;;;;43.15;24.75;;;-0.50;99.90;;;;;;5033644;28;20442;-64
2023/01/21 04:44:33;;;;;;;48.65;24.13;;;-0.50;99.90;;;;;;5052480;28;20374;-64
2023/01/21 04:46:59;;;;;;;40.78;21.77;;;-0.50;99.90;;;;;;5050246;28;20171;-64
2023/01/21 04:49:24;;;;;;;44.60;23.88;;;-0.50;99.90;;;;;;5050587;28;20040;-64
2023/01/21 04:51:50;;;;;;;42.25;22.58;;;-0.50;99.90;;;;;;5051139;28;20052;-64
2023/01/21 04:54:16;;;;;;;43.40;23.95;;;-0.40;99.90;;;;;;5050542;28;20040;-64
2023/01/21 04:56:41;;;;;;;40.22;23.42;;;-0.40;99.90;;;;;;5050819;28;20037;-64
2023/01/21 04:59:07;;;;;;;42.97;22.83;;;-0.30;99.90;;;;;;5050460;28;20129;-64
2023/01/21 05:01:32;;;;;;;45.30;24.27;;;-0.40;99.90;;;;;;5033510;28;20079;-64
2023/01/21 05:03:58;;;;;;;50.10;24.15;;;-0.30;99.90;;;;;;5052268;28;20657;-64
2023/01/21 05:06:24;;;;;;;45.20;24.80;;;-0.20;99.90;;;;;;5051436;28;20687;-64
2023/01/21 05:08:49;;;;;;;41.63;23.90;;;-0.20;99.90;;;;;;5051245;28;20117;-64
2023/01/21 05:11:17;;;;;;;43.53;24.60;;;-0.20;99.90;;;;;;5051334;28;20033;-64
2023/01/21 05:13:43;;;;;;;45.85;25.38;;;-0.10;99.90;;;;;;5051935;28;20041;-64
2023/01/21 05:16:09;;;;;;;47.88;25.38;;;-0.10;99.90;;;;;;5050550;28;20041;-64
2023/01/21 05:18:38;;;;;;;50.38;26.10;;;-0.10;99.90;;;;;;5050987;28;20080;-63
2023/01/21 05:21:04;;;;;;;45.65;25.77;;;-0.10;99.90;;;;;;5051785;28;20477;-64
2023/01/21 05:23:30;;;;;;;46.53;25.50;;;-0.10;99.90;;;;;;5051579;28;20143;-64
2023/01/21 05:25:56;;;;;;;44.45;24.92;;;-0.20;99.90;;;;;;5055431;28;20048;-64
2023/01/21 05:28:21;;;;;;;48.35;26.90;;;-0.20;99.90;;;;;;5053737;28;20076;-64
2023/01/21 05:30:47;;;;;;;47.65;25.20;;;-0.20;99.90;;;;;;5053453;28;20072;-64
2023/01/21 05:33:13;;;;;;;49.50;28.77;;;-0.20;99.90;;;;;;5054787;28;20123;-64
2023/01/21 05:35:38;;;;;;;47.50;26.70;;;-0.20;99.90;;;;;;5054190;28;20060;-64
2023/01/21 05:38:04;;;;;;;45.70;25.73;;;-0.20;99.90;;;;;;5053257;28;20099;-64
2023/01/21 05:40:30;;;;;;;48.63;26.85;;;-0.20;99.90;;;;;;5053994;28;20072;-64
2023/01/21 05:42:56;;;;;;;48.35;25.63;;;-0.20;99.90;;;;;;5053334;28;20041;-64
2023/01/21 05:45:21;;;;;;;44.10;25.90;;;-0.20;99.90;;;;;;5036533;28;20044;-64
2023/01/21 05:47:47;;;;;;;47.13;27.85;;;-0.20;99.90;;;;;;5053957;28;20045;-64
2023/01/21 05:50:13;;;;;;;56.88;27.20;;;-0.20;99.90;;;;;;5052588;28;20132;-64
2023/01/21 05:52:39;;;;;;;45.83;25.10;;;-0.20;99.90;;;;;;5053711;28;20037;-64
2023/01/21 05:55:05;;;;;;;43.85;24.55;;;-0.30;99.90;;;;;;5053255;28;20052;-64
2023/01/21 05:57:31;;;;;;;43.05;24.85;;;-0.30;99.90;;;;;;5053515;28;20045;-64
2023/01/21 05:59:57;;;;;;;44.92;24.88;;;-0.40;99.90;;;;;;5037048;28;20441;-64
2023/01/21 06:02:23;;;;;;;50.30;25.88;;;-0.40;99.90;;;;;;5054638;28;20099;-64
2023/01/21 06:04:49;;;;;;;46.08;25.15;;;-0.40;99.90;;;;;;5052786;28;20033;-64
2023/01/21 06:07:14;;;;;;;43.47;23.75;;;-0.40;99.90;;;;;;5053340;28;20037;-64
2023/01/21 06:09:40;;;;;;;39.78;24.73;;;-0.40;99.90;;;;;;5053647;28;20477;-64
2023/01/21 06:12:06;;;;;;;44.53;24.50;;;-0.50;99.90;;;;;;5052217;28;20040;-64
2023/01/21 06:14:31;;;;;;;47.80;26.05;;;-0.50;99.90;;;;;;5053737;28;20052;-64
2023/01/21 06:16:57;;;;;;;41.47;22.70;;;-0.50;99.90;;;;;;5053315;28;20468;-64
2023/01/21 06:19:22;;;;;;;46.20;24.38;;;-0.60;99.90;;;;;;5052161;28;20049;-64
2023/01/21 06:21:50;;;;;;;42.63;23.70;;;-0.60;99.90;;;;;;5053364;28;20128;-64
2023/01/21 06:24:16;;;;;;;49.15;26.13;;;-0.60;99.90;;;;;;5052640;28;20052;-65
2023/01/21 06:26:41;;;;;;;50.67;26.45;;;-0.60;99.90;;;;;;5052509;28;20401;-64
2023/01/21 06:29:07;;;;;;;47.13;26.80;;;-0.60;99.90;;;;;;5052713;28;20033;-64
2023/01/21 06:31:33;;;;;;;51.40;28.25;;;-0.50;99.90;;;;;;5053151;28;20109;-64
2023/01/21 06:33:58;;;;;;;47.75;26.92;;;-0.50;99.90;;;;;;5052371;28;20448;-64
2023/01/21 06:36:24;;;;;;;44.15;26.38;;;-0.50;99.90;;;;;;5053455;28;20519;-64
2023/01/21 06:38:49;;;;;;;52.38;30.15;;;-0.50;99.90;;;;;;5036516;28;20432;-64
2023/01/21 06:41:15;;;;;;;47.58;27.67;;;-0.50;99.90;;;;;;5052906;28;20394;-64
2023/01/21 06:43:41;;;;;;;44.45;25.50;;;-0.50;99.90;;;;;;5036307;28;20041;-64
2023/01/21 06:46:07;;;;;;;48.33;29.10;;;-0.50;99.90;;;;;;5052262;28;20048;-64
2023/01/21 06:48:32;;;;;;;52.40;30.13;;;-0.60;99.90;;;;;;5052079;28;20037;-64
2023/01/21 06:51:02;;;;;;;46.35;28.25;;;-0.50;99.90;;;;;;5052682;28;20110;-64
2023/01/21 06:53:27;;;;;;;45.58;26.63;;;-0.50;99.90;;;;;;5051201;28;20060;-64
2023/01/21 06:55:53;;;;;;;59.25;31.08;;;-0.50;99.90;;;;;;5052922;28;20048;-64
2023/01/21 06:58:19;;;;;;;51.72;30.10;;;-0.40;99.90;;;;;;5052354;28;20044;-64
2023/01/21 07:00:44;;;;;;;49.05;28.75;;;-0.50;99.90;;;;;;5051775;28;20086;-64
2023/01/21 07:03:10;;;;;;;58.05;32.60;;;-0.40;99.90;;;;;;5053275;28;20093;-64
2023/01/21 07:05:36;;;;;;;43.45;26.35;;;-0.40;99.90;;;;;;5052542;28;20044;-64
2023/01/21 07:08:02;;;;;;;57.80;29.30;;;-0.40;99.90;;;;;;5051548;28;20044;-64
2023/01/21 07:10:27;;;;;;;55.67;30.23;;;-0.40;99.90;;;;;;5053262;28;20029;-64
2023/01/21 07:12:53;;;;;;;49.53;29.58;;;-0.40;99.90;;;;;;5035961;28;20090;-64
2023/01/21 07:15:19;;;;;;;54.53;31.02;;;-0.40;99.90;;;;;;5050896;28;20036;-64
2023/01/21 07:17:44;;;;;;;54.35;29.13;;;-0.40;99.90;;;;;;5035590;28;20052;-64
2023/01/21 07:20:13;;;;;;;51.67;30.52;;;-0.40;99.90;;;;;;5052948;28;20041;-64
2023/01/21 07:22:39;;;;;;;66.32;40.10;;;-0.50;99.90;;;;;;5052586;28;20033;-64
2023/01/21 07:25:06;;;;;;;61.50;39.53;;;-0.50;99.90;;;;;;5051544;28;20041;-64
2023/01/21 07:27:31;;;;;;;53.67;32.25;;;-0.50;99.90;;;;;;5035323;28;20126;-64
2023/01/21 07:29:57;;;;;;;52.60;32.63;;;-0.50;99.90;;;;;;5051192;28;20161;-64
2023/01/21 07:32:23;;;;;;;59.10;34.97;;;-0.50;99.90;;;;;;5051602;28;20041;-64
2023/01/21 07:34:48;;;;;;;53.10;33.08;;;-0.50;99.90;;;;;;5051723;28;20157;-64
2023/01/21 07:37:14;;;;;;;58.47;36.03;;;-0.50;99.90;;;;;;5051857;28;20452;-64
2023/01/21 07:39:40;;;;;;;61.70;36.50;;;-0.50;99.90;;;;;;5051859;28;20131;-64
2023/01/21 07:42:05;;;;;;;55.03;35.10;;;-0.60;99.90;;;;;;5051494;28;20091;-64
2023/01/21 07:44:31;;;;;;;55.70;32.03;;;-0.50;99.90;;;;;;5052433;28;20042;-64
2023/01/21 07:46:57;;;;;;;59.15;33.13;;;-0.50;99.90;;;;;;5051160;28;20087;-64
2023/01/21 07:49:22;;;;;;;48.72;29.67;;;-0.50;99.90;;;;;;5034481;28;20473;-64
2023/01/21 07:51:48;;;;;;;57.55;32.67;;;-0.60;99.90;;;;;;5050847;28;20079;-64
2023/01/21 07:54:14;;;;;;;47.47;30.13;;;-0.60;99.90;;;;;;5034562;28;20481;-64
2023/01/21 07:56:40;;;;;;;75.30;41.03;;;-0.60;99.90;;;;;;5049379;28;20041;-64
2023/01/21 07:59:06;;;;;;;54.92;30.63;;;-0.60;99.90;;;;;;5019780;28;20045;-64
2023/01/21 08:01:32;;;;;;;56.53;33.80;;;-0.70;99.90;;;;;;5019535;28;20039;-64
2023/01/21 08:03:59;;;;;;;57.53;31.67;;;-0.70;99.90;;;;;;5046685;28;20444;-64
2023/01/21 08:06:25;;;;;;;54.13;29.85;;;-0.70;99.90;;;;;;5049078;28;20044;-64
2023/01/21 08:08:51;;;;;;;50.65;28.90;;;-0.70;99.90;;;;;;5034625;28;20504;-64
2023/01/21 08:11:16;;;;;;;57.65;30.83;;;-0.70;99.90;;;;;;5028445;28;20056;-64
2023/01/21 08:13:43;;;;;;;64.88;36.22;;;-0.70;99.90;;;;;;5039153;28;20048;-64
2023/01/21 08:16:12;;;;;;;56.05;33.50;;;-0.70;99.90;;;;;;5038235;28;20481;-64
2023/01/21 08:18:38;;;;;;;55.13;32.65;;;-0.80;99.90;;;;;;5031891;28;20481;-64
2023/01/21 08:21:04;;;;;;;56.88;33.50;;;-0.70;99.90;;;;;;5019778;28;20524;-64
2023/01/21 08:23:30;;;;;;;59.40;33.30;;;-0.70;99.90;;;;;;5046947;28;20050;-64
2023/01/21 08:26:00;;;;;;;54.25;33.75;;;-0.70;99.90;;;;;;5034927;28;20045;-65
2023/01/21 08:28:26;;;;;;;66.15;37.35;;;-0.60;99.90;;;;;;5028915;28;20375;-64
2023/01/21 08:30:52;;;;;;;64.70;36.78;;;-0.60;99.90;;;;;;5011689;28;20040;-64
2023/01/21 08:33:17;;;;;;;60.53;34.97;;;-0.50;99.90;;;;;;5026477;28;20048;-64
2023/01/21 08:35:43;;;;;;;73.63;45.80;;;-0.50;99.90;;;;;;5030249;28;20498;-64
2023/01/21 08:38:09;;;;;;;99.65;57.78;;;-0.40;99.90;;;;;;5010789;28;20041;-64
2023/01/21 08:40:35;;;;;;;93.88;55.78;;;-0.40;99.90;;;;;;5028546;28;20045;-64
2023/01/21 08:43:02;;;;;;;64.43;42.08;;;-0.30;99.90;;;;;;5031889;28;20047;-65
2023/01/21 08:45:29;;;;;;;74.05;45.80;;;-0.30;99.90;;;;;;5029267;28;20045;-65
2023/01/21 08:47:55;;;;;;;71.15;44.08;;;-0.10;99.90;;;;;;5028525;28;20112;-65
2023/01/21 08:50:22;;;;;;;65.15;38.97;;;-0.10;99.90;;;;;;5027398;28;20405;-64
2023/01/21 08:52:54;;;;;;;68.75;40.13;;;0.10;99.90;;;;;;5011024;28;20084;-65
2023/01/21 08:55:25;;;;;;;58.42;33.15;;;0.10;99.90;;;;;;5027542;28;20566;-64
2023/01/21 08:57:54;;;;;;;59.10;33.60;;;0.10;99.90;;;;;;5029630;28;20076;-64
2023/01/21 09:00:21;;;;;;;54.28;31.52;;;0.20;99.90;;;;;;5034216;28;20391;-64
2023/01/21 09:02:47;;;;;;;55.17;31.52;;;0.30;99.90;;;;;;5032070;28;20502;-64
2023/01/21 09:05:13;;;;;;;52.28;29.08;;;0.30;99.90;;;;;;5031995;28;20048;-64
2023/01/21 09:07:38;;;;;;;59.92;33.05;;;0.30;99.90;;;;;;5044467;28;20559;-64
2023/01/21 09:10:05;;;;;;;51.03;28.83;;;0.30;99.90;;;;;;5036072;28;20036;-64
2023/01/21 09:12:31;;;;;;;53.08;30.75;;;0.40;99.90;;;;;;5035592;28;20041;-64
2023/01/21 09:14:57;;;;;;;53.70;31.05;;;0.40;99.90;;;;;;5041070;28;20045;-64
2023/01/21 09:17:22;;;;;;;52.88;31.77;;;0.40;99.90;;;;;;5015275;28;20046;-64
2023/01/21 09:19:48;;;;;;;54.38;29.00;;;0.40;99.90;;;;;;5035724;28;20119;-64
2023/01/21 09:22:15;;;;;;;51.58;29.92;;;0.50;99.90;;;;;;5049648;28;20040;-65
2023/01/21 09:24:40;;;;;;;52.58;29.67;;;0.50;99.90;;;;;;5047560;28;20549;-64
2023/01/21 09:27:07;;;;;;;54.97;28.20;;;0.60;99.90;;;;;;5014362;28;20133;-65
2023/01/21 09:29:33;;;;;;;56.22;30.50;;;0.70;99.90;;;;;;5031239;28;20045;-64
2023/01/21 09:32:00;;;;;;;52.92;30.33;;;0.60;99.90;;;;;;5015301;28;20409;-64
2023/01/21 09:34:25;;;;;;;52.53;28.95;;;0.80;99.90;;;;;;5038767;28;20052;-65
2023/01/21 09:36:51;;;;;;;48.53;27.08;;;0.80;99.90;;;;;;5033275;28;20052;-64
2023/01/21 09:39:17;;;;;;;45.28;26.10;;;0.90;99.90;;;;;;5025367;28;20600;-64
2023/01/21 09:41:47;;;;;;;48.90;24.63;;;1.00;99.90;;;;;;5030461;28;20107;-64
2023/01/21 09:44:36;;;;;;;52.72;28.45;;;1.10;99.90;;;;;;5043108;28;20131;-64
2023/01/21 09:47:05;;;;;;;49.35;26.17;;;1.20;99.90;;;;;;5042158;28;20127;-64
2023/01/21 09:49:41;;;;;;;48.38;26.98;;;1.40;99.90;;;;;;5030894;28;20060;-64
2023/01/21 09:52:27;;;;;;;45.50;26.02;;;1.50;99.90;;;;;;5046679;28;20045;-64
2023/01/21 09:54:54;;;;;;;40.67;23.55;;;1.60;99.90;;;;;;5032660;28;20065;-64
2023/01/21 09:57:38;;;;;;;42.45;24.67;;;1.60;99.90;;;;;;5032036;28;20038;-64
2023/01/21 10:00:34;;;;;;;46.40;23.98;;;1.70;99.90;;;;;;5047306;28;20040;-64
2023/01/21 10:03:03;;;;;;;40.95;24.77;;;1.80;99.90;;;;;;5034008;28;20072;-64
2023/01/21 10:05:43;;;;;;;42.25;23.10;;;1.80;99.90;;;;;;5014080;28;20052;-64
2023/01/21 10:08:27;;;;;;;37.60;22.15;;;1.80;99.90;;;;;;5027130;28;20072;-64
2023/01/21 10:11:06;;;;;;;41.22;23.60;;;1.80;99.90;;;;;;5050257;28;20049;-65
2023/01/21 10:14:02;;;;;;;39.60;22.98;;;1.90;99.90;;;;;;5050578;28;20040;-64
2023/01/21 10:16:42;;;;;;;34.58;20.45;;;1.90;99.90;;;;;;5045357;28;20099;-64
2023/01/21 10:19:14;;;;;;;40.97;22.38;;;1.90;99.90;;;;;;5032181;28;20041;-64
2023/01/21 10:21:55;;;;;;;39.35;21.35;;;2.00;99.90;;;;;;5031392;28;20406;-64
2023/01/21 10:24:33;;;;;;;37.85;20.77;;;2.00;99.90;;;;;;5028792;28;20132;-64
2023/01/21 10:26:59;;;;;;;37.13;20.58;;;2.00;99.90;;;;;;5046539;28;20059;-64
2023/01/21 10:29:26;;;;;;;36.20;22.05;;;2.10;99.90;;;;;;5046657;28;20041;-64
2023/01/21 10:32:03;;;;;;;37.65;22.08;;;2.10;99.90;;;;;;5045623;28;20059;-64
2023/01/21 10:34:43;;;;;;;36.22;19.13;;;2.10;99.90;;;;;;5050113;28;20059;-64
2023/01/21 10:37:21;;;;;;;40.22;21.70;;;2.10;99.90;;;;;;5033444;28;20464;-64
2023/01/21 10:39:56;;;;;;;36.55;20.02;;;2.20;99.90;;;;;;5033413;28;20041;-64
2023/01/21 10:42:38;;;;;;;;;;;2.20;99.90;;;;;;5052671;28;20044;-63
2023/01/21 10:45:19;;;;;;;29.90;17.45;;;2.20;99.90;;;;;;5034348;28;20004;-64
2023/01/21 10:47:44;;;;;;;34.03;19.52;;;2.20;99.90;;;;;;5036744;28;20116;-64
2023/01/21 10:50:18;;;;;;;33.47;19.05;;;2.40;99.90;;;;;;5050582;28;20140;-64
2023/01/21 10:53:26;;;;;;;36.15;20.23;;;2.50;99.90;;;;;;5050375;28;20106;-63
2023/01/21 10:56:05;;;;;;;37.80;21.05;;;2.50;99.90;;;;;;5046198;28;20044;-64
2023/01/21 10:58:51;;;;;;;24.80;14.65;;;2.60;99.90;;;;;;5036313;28;20392;-64
2023/01/21 11:01:24;;;;;;;30.40;18.63;;;2.60;99.90;;;;;;5031548;28;20045;-64
2023/01/21 11:03:53;;;;;;;27.00;15.52;;;2.60;99.90;;;;;;5044400;28;20073;-64
2023/01/21 11:06:21;;;;;;;40.47;25.52;;;2.70;99.90;;;;;;5042466;28;20045;-64
2023/01/21 11:08:55;;;;;;;35.40;21.52;;;2.70;99.90;;;;;;5035149;28;20037;-63
2023/01/21 11:11:31;;;;;;;26.50;17.98;;;2.80;99.90;;;;;;5053135;28;20047;-64
2023/01/21 11:13:57;;;;;;;24.05;14.90;;;2.90;99.90;;;;;;5052893;28;20041;-63
2023/01/21 11:16:33;;;;;;;24.33;12.95;;;2.90;99.90;;;;;;5051735;28;20057;-63
2023/01/21 11:18:59;;;;;;;47.92;27.58;;;2.90;99.90;;;;;;5035957;28;20099;-63
2023/01/21 11:21:25;;;;;;;29.45;17.48;;;3.00;99.90;;;;;;5043458;28;20049;-64
2023/01/21 11:24:02;;;;;;;20.63;12.68;;;3.00;99.90;;;;;;5049606;28;20075;-64
2023/01/21 11:26:32;;;;;;;20.08;12.43;;;3.10;99.90;;;;;;5051603;28;20401;-64
2023/01/21 11:29:10;;;;;;;27.88;17.30;;;3.10;99.90;;;;;;5051286;28;20080;-64
2023/01/21 11:31:36;;;;;;;16.13;10.77;;;3.20;99.90;;;;;;5052077;28;20120;-64
2023/01/21 11:34:11;;;;;;;31.30;18.77;;;3.20;99.90;;;;;;5051882;28;20032;-64
2023/01/21 11:36:56;;;;;;;34.00;23.73;;;3.30;99.90;;;;;;5051154;28;20049;-64
2023/01/21 11:39:27;;;;;;;23.70;15.38;;;3.30;99.90;;;;;;5051684;28;20036;-64
2023/01/21 11:41:55;;;;;;;36.42;23.83;;;3.30;99.90;;;;;;5051029;28;20485;-64
2023/01/21 11:44:22;;;;;;;28.52;19.67;;;3.30;99.90;;;;;;5034607;28;20045;-63
2023/01/21 11:46:48;;;;;;;20.75;16.30;;;3.40;99.90;;;;;;5051770;28;20401;-64
2023/01/21 11:49:14;;;;;;;16.92;9.98;;;3.40;99.90;;;;;;5051807;28;20072;-64
2023/01/21 11:51:41;;;;;;;16.25;9.20;;;3.40;99.90;;;;;;5051716;28;20068;-63
2023/01/21 11:54:10;;;;;;;20.67;12.27;;;3.40;99.90;;;;;;5050978;28;20073;-63
2023/01/21 11:56:36;;;;;;;16.20;10.00;;;3.50;99.90;;;;;;5051860;28;20041;-64
2023/01/21 11:59:21;;;;;;;13.15;8.32;;;3.50;99.90;;;;;;5052771;28;20052;-64
2023/01/21 12:01:58;;;;;;;16.45;9.75;;;3.60;99.90;;;;;;5051619;28;20056;-63
2023/01/21 12:04:25;;;;;;;12.23;7.63;;;3.60;99.90;;;;;;5051368;28;20045;-64
2023/01/21 12:06:56;;;;;;;12.80;7.47;;;3.60;99.90;;;;;;5051572;28;20033;-63
2023/01/21 12:09:22;;;;;;;64.30;36.50;;;3.60;99.90;;;;;;5050794;28;20168;-64
2023/01/21 12:12:12;;;;;;;54.70;30.90;;;3.60;99.90;;;;;;5050412;28;20120;-63
2023/01/21 12:14:53;;;;;;;23.10;13.48;;;3.60;99.90;;;;;;5052648;28;20037;-63
2023/01/21 12:17:41;;;;;;;19.13;12.07;;;3.60;99.90;;;;;;5033338;28;20040;-64
2023/01/21 12:20:32;;;;;;;15.38;9.95;;;3.60;99.90;;;;;;5050802;28;20047;-64
2023/01/21 12:23:24;;;;;;;14.32;8.70;;;3.60;99.90;;;;;;5052405;28;20120;-64
2023/01/21 12:26:06;;;;;;;16.02;9.70;;;3.60;99.90;;;;;;5018476;28;20459;-64
2023/01/21 12:28:42;;;;;;;12.18;8.00;;;3.60;99.90;;;;;;5051221;28;20045;-63
2023/01/21 12:31:22;;;;;;;17.83;10.82;;;3.60;99.90;;;;;;5044587;28;20041;-63
2023/01/21 12:34:09;;;;;;;11.15;6.70;;;3.70;99.90;;;;;;5051504;28;20037;-63
2023/01/21 12:37:05;;;;;;;14.57;7.78;;;3.70;99.90;;;;;;5038811;28;20053;-63
2023/01/21 12:39:36;;;;;;;13.35;7.03;;;3.70;99.90;;;;;;5024150;28;20498;-63
2023/01/21 12:42:25;;;;;;;10.85;6.75;;;3.70;99.90;;;;;;5039759;28;20033;-63
2023/01/21 12:45:26;;;;;;;11.15;6.63;;;3.70;99.90;;;;;;5040599;28;20049;-63
2023/01/21 12:48:19;;;;;;;12.23;6.90;;;3.80;99.90;;;;;;5038935;28;20053;-63
2023/01/21 12:50:51;;;;;;;11.07;6.68;;;3.80;99.90;;;;;;5029099;28;20490;-64